sensor_id;sensor_type;location;lat;lon;timestamp;P1;durP1;ratioP1;P2;durP2;ratioP2
17991;SDS011;9121;50.926;5.340;2022-08-05T00:01:59;12.25;;;5.45;;
17991;SDS011;9121;50.926;5.340;2022-08-05T00:04:27;10.77;;;5.53;;
17991;SDS011;9121;50.926;5.340;2022-08-05T00:06:54;9.40;;;5.60;;
17991;SDS011;9121;50.926;5.340;2022-08-05T00:09:21;9.43;;;5.10;;
17991;SDS011;9121;50.926;5.340;2022-08-05T00:11:48;9.57;;;5.10;;
17991;SDS011;9121;50.926;5.340;2022-08-05T00:14:15;11.57;;;5.25;;
17991;SDS011;9121;50.926;5.340;2022-08-05T00:16:43;9.85;;;5.40;;
17991;SDS011;9121;50.926;5.340;2022-08-05T00:19:11;8.55;;;4.85;;
17991;SDS011;9121;50.926;5.340;2022-08-05T00:21:39;10.05;;;5.15;;
17991;SDS011;9121;50.926;5.340;2022-08-05T00:24:06;9.50;;;5.00;;
17991;SDS011;9121;50.926;5.340;2022-08-05T00:26:33;8.75;;;5.10;;
17991;SDS011;9121;50.926;5.340;2022-08-05T00:29:00;8.90;;;5.25;;
17991;SDS011;9121;50.926;5.340;2022-08-05T00:31:27;10.27;;;5.47;;
17991;SDS011;9121;50.926;5.340;2022-08-05T00:33:54;11.13;;;5.60;;
17991;SDS011;9121;50.926;5.340;2022-08-05T00:36:21;8.95;;;5.40;;
17991;SDS011;9121;50.926;5.340;2022-08-05T00:38:50;7.75;;;4.85;;
17991;SDS011;9121;50.926;5.340;2022-08-05T00:41:25;10.75;;;5.32;;
17991;SDS011;9121;50.926;5.340;2022-08-05T00:43:53;9.65;;;5.88;;
17991;SDS011;9121;50.926;5.340;2022-08-05T00:46:20;11.00;;;5.32;;
17991;SDS011;9121;50.926;5.340;2022-08-05T00:48:47;8.82;;;5.18;;
17991;SDS011;9121;50.926;5.340;2022-08-05T00:51:14;10.52;;;5.70;;
17991;SDS011;9121;50.926;5.340;2022-08-05T00:53:41;10.60;;;5.10;;
17991;SDS011;9121;50.926;5.340;2022-08-05T00:56:09;11.77;;;5.80;;
17991;SDS011;9121;50.926;5.340;2022-08-05T00:58:36;10.82;;;4.85;;
17991;SDS011;9121;50.926;5.340;2022-08-05T01:01:03;10.82;;;5.20;;
17991;SDS011;9121;50.926;5.340;2022-08-05T01:03:31;11.40;;;5.53;;
17991;SDS011;9121;50.926;5.340;2022-08-05T01:05:57;25.70;;;7.72;;
17991;SDS011;9121;50.926;5.340;2022-08-05T01:08:24;23.05;;;7.85;;
17991;SDS011;9121;50.926;5.340;2022-08-05T01:10:53;17.85;;;7.72;;
17991;SDS011;9121;50.926;5.340;2022-08-05T01:13:24;17.50;;;7.70;;
17991;SDS011;9121;50.926;5.340;2022-08-05T01:15:59;15.13;;;7.82;;
17991;SDS011;9121;50.926;5.340;2022-08-05T01:18:31;16.08;;;7.95;;
17991;SDS011;9121;50.926;5.340;2022-08-05T01:21:03;15.10;;;8.13;;
17991;SDS011;9121;50.926;5.340;2022-08-05T01:23:51;15.57;;;8.25;;
17991;SDS011;9121;50.926;5.340;2022-08-05T01:26:34;13.52;;;7.90;;
17991;SDS011;9121;50.926;5.340;2022-08-05T01:29:15;17.63;;;8.73;;
17991;SDS011;9121;50.926;5.340;2022-08-05T01:31:47;15.05;;;8.98;;
17991;SDS011;9121;50.926;5.340;2022-08-05T01:34:18;18.60;;;10.10;;
17991;SDS011;9121;50.926;5.340;2022-08-05T01:36:49;18.38;;;9.55;;
17991;SDS011;9121;50.926;5.340;2022-08-05T01:39:23;14.52;;;8.93;;
17991;SDS011;9121;50.926;5.340;2022-08-05T01:41:52;16.58;;;9.88;;
17991;SDS011;9121;50.926;5.340;2022-08-05T01:44:22;14.20;;;8.23;;
17991;SDS011;9121;50.926;5.340;2022-08-05T01:46:50;13.70;;;8.32;;
17991;SDS011;9121;50.926;5.340;2022-08-05T01:49:19;16.55;;;8.15;;
17991;SDS011;9121;50.926;5.340;2022-08-05T01:51:48;17.38;;;8.63;;
17991;SDS011;9121;50.926;5.340;2022-08-05T01:54:17;16.00;;;8.60;;
17991;SDS011;9121;50.926;5.340;2022-08-05T01:56:46;15.48;;;8.57;;
17991;SDS011;9121;50.926;5.340;2022-08-05T01:59:16;15.05;;;7.68;;
17991;SDS011;9121;50.926;5.340;2022-08-05T02:01:48;12.45;;;7.78;;
17991;SDS011;9121;50.926;5.340;2022-08-05T02:04:16;12.88;;;7.68;;
17991;SDS011;9121;50.926;5.340;2022-08-05T02:06:45;15.07;;;7.45;;
17991;SDS011;9121;50.926;5.340;2022-08-05T02:09:12;16.25;;;8.20;;
17991;SDS011;9121;50.926;5.340;2022-08-05T02:11:42;16.70;;;8.60;;
17991;SDS011;9121;50.926;5.340;2022-08-05T02:14:14;13.98;;;7.97;;
17991;SDS011;9121;50.926;5.340;2022-08-05T02:16:46;14.18;;;8.60;;
17991;SDS011;9121;50.926;5.340;2022-08-05T02:19:18;17.27;;;8.43;;
17991;SDS011;9121;50.926;5.340;2022-08-05T02:21:51;14.98;;;8.32;;
17991;SDS011;9121;50.926;5.340;2022-08-05T02:24:23;19.00;;;9.65;;
17991;SDS011;9121;50.926;5.340;2022-08-05T02:26:57;14.48;;;7.93;;
17991;SDS011;9121;50.926;5.340;2022-08-05T02:29:27;13.27;;;7.85;;
17991;SDS011;9121;50.926;5.340;2022-08-05T02:31:56;14.63;;;8.23;;
17991;SDS011;9121;50.926;5.340;2022-08-05T02:34:25;15.40;;;8.65;;
17991;SDS011;9121;50.926;5.340;2022-08-05T02:36:57;13.90;;;7.43;;
17991;SDS011;9121;50.926;5.340;2022-08-05T02:39:28;8.73;;;7.18;;
17991;SDS011;9121;50.926;5.340;2022-08-05T02:42:00;12.05;;;7.65;;
17991;SDS011;9121;50.926;5.340;2022-08-05T02:44:29;15.00;;;8.30;;
17991;SDS011;9121;50.926;5.340;2022-08-05T02:47:02;17.17;;;8.40;;
17991;SDS011;9121;50.926;5.340;2022-08-05T02:49:31;12.77;;;7.70;;
17991;SDS011;9121;50.926;5.340;2022-08-05T02:52:01;16.25;;;7.45;;
17991;SDS011;9121;50.926;5.340;2022-08-05T02:54:29;12.98;;;7.68;;
17991;SDS011;9121;50.926;5.340;2022-08-05T02:56:58;15.38;;;7.78;;
17991;SDS011;9121;50.926;5.340;2022-08-05T02:59:27;10.90;;;6.75;;
17991;SDS011;9121;50.926;5.340;2022-08-05T03:01:55;16.05;;;7.78;;
17991;SDS011;9121;50.926;5.340;2022-08-05T03:04:26;15.70;;;7.88;;
17991;SDS011;9121;50.926;5.340;2022-08-05T03:06:53;9.93;;;7.35;;
17991;SDS011;9121;50.926;5.340;2022-08-05T03:09:21;13.45;;;8.20;;
17991;SDS011;9121;50.926;5.340;2022-08-05T03:11:48;15.68;;;8.02;;
17991;SDS011;9121;50.926;5.340;2022-08-05T03:14:15;14.00;;;8.07;;
17991;SDS011;9121;50.926;5.340;2022-08-05T03:16:43;16.42;;;8.88;;
17991;SDS011;9121;50.926;5.340;2022-08-05T03:19:10;15.00;;;9.38;;
17991;SDS011;9121;50.926;5.340;2022-08-05T03:21:38;19.65;;;8.38;;
17991;SDS011;9121;50.926;5.340;2022-08-05T03:24:05;15.88;;;8.73;;
17991;SDS011;9121;50.926;5.340;2022-08-05T03:26:33;18.00;;;8.45;;
17991;SDS011;9121;50.926;5.340;2022-08-05T03:29:00;16.90;;;9.88;;
17991;SDS011;9121;50.926;5.340;2022-08-05T03:31:27;18.73;;;9.13;;
17991;SDS011;9121;50.926;5.340;2022-08-05T03:33:55;14.48;;;8.52;;
17991;SDS011;9121;50.926;5.340;2022-08-05T03:36:22;14.02;;;8.25;;
17991;SDS011;9121;50.926;5.340;2022-08-05T03:38:52;16.75;;;8.98;;
17991;SDS011;9121;50.926;5.340;2022-08-05T03:41:18;13.10;;;9.00;;
17991;SDS011;9121;50.926;5.340;2022-08-05T03:43:45;15.88;;;9.25;;
17991;SDS011;9121;50.926;5.340;2022-08-05T03:46:12;18.45;;;10.02;;
17991;SDS011;9121;50.926;5.340;2022-08-05T03:48:39;14.05;;;9.85;;
17991;SDS011;9121;50.926;5.340;2022-08-05T03:51:11;14.85;;;8.95;;
17991;SDS011;9121;50.926;5.340;2022-08-05T03:53:41;13.25;;;9.05;;
17991;SDS011;9121;50.926;5.340;2022-08-05T03:56:16;15.20;;;8.93;;
17991;SDS011;9121;50.926;5.340;2022-08-05T03:58:49;13.15;;;8.50;;
17991;SDS011;9121;50.926;5.340;2022-08-05T04:01:18;18.02;;;9.18;;
17991;SDS011;9121;50.926;5.340;2022-08-05T04:03:47;17.95;;;9.55;;
17991;SDS011;9121;50.926;5.340;2022-08-05T04:06:16;20.08;;;9.23;;
17991;SDS011;9121;50.926;5.340;2022-08-05T04:08:44;24.50;;;9.63;;
17991;SDS011;9121;50.926;5.340;2022-08-05T04:11:12;16.00;;;10.00;;
17991;SDS011;9121;50.926;5.340;2022-08-05T04:13:41;18.67;;;9.65;;
17991;SDS011;9121;50.926;5.340;2022-08-05T04:16:08;14.50;;;9.38;;
17991;SDS011;9121;50.926;5.340;2022-08-05T04:18:37;15.88;;;9.95;;
17991;SDS011;9121;50.926;5.340;2022-08-05T04:21:04;19.85;;;10.73;;
17991;SDS011;9121;50.926;5.340;2022-08-05T04:23:33;18.75;;;10.80;;
17991;SDS011;9121;50.926;5.340;2022-08-05T04:26:01;16.25;;;9.77;;
17991;SDS011;9121;50.926;5.340;2022-08-05T04:28:28;13.65;;;10.13;;
17991;SDS011;9121;50.926;5.340;2022-08-05T04:30:56;17.20;;;10.82;;
17991;SDS011;9121;50.926;5.340;2022-08-05T04:33:23;19.52;;;10.75;;
17991;SDS011;9121;50.926;5.340;2022-08-05T04:35:50;17.85;;;11.15;;
17991;SDS011;9121;50.926;5.340;2022-08-05T04:38:17;18.20;;;11.10;;
17991;SDS011;9121;50.926;5.340;2022-08-05T04:40:44;16.73;;;10.15;;
17991;SDS011;9121;50.926;5.340;2022-08-05T04:43:11;17.25;;;9.77;;
17991;SDS011;9121;50.926;5.340;2022-08-05T04:45:38;15.43;;;10.40;;
17991;SDS011;9121;50.926;5.340;2022-08-05T04:48:07;27.15;;;12.23;;
17991;SDS011;9121;50.926;5.340;2022-08-05T04:50:38;22.33;;;11.50;;
17991;SDS011;9121;50.926;5.340;2022-08-05T04:53:06;23.92;;;11.25;;
17991;SDS011;9121;50.926;5.340;2022-08-05T04:55:34;16.42;;;11.85;;
17991;SDS011;9121;50.926;5.340;2022-08-05T04:58:02;24.38;;;11.68;;
17991;SDS011;9121;50.926;5.340;2022-08-05T05:00:29;19.77;;;12.32;;
17991;SDS011;9121;50.926;5.340;2022-08-05T05:02:56;21.00;;;12.25;;
17991;SDS011;9121;50.926;5.340;2022-08-05T05:05:25;22.42;;;12.82;;
17991;SDS011;9121;50.926;5.340;2022-08-05T05:07:52;26.13;;;14.25;;
17991;SDS011;9121;50.926;5.340;2022-08-05T05:10:20;18.85;;;11.85;;
17991;SDS011;9121;50.926;5.340;2022-08-05T05:12:47;20.25;;;11.85;;
17991;SDS011;9121;50.926;5.340;2022-08-05T05:15:14;20.45;;;12.35;;
17991;SDS011;9121;50.926;5.340;2022-08-05T05:17:41;20.13;;;11.93;;
17991;SDS011;9121;50.926;5.340;2022-08-05T05:20:09;19.55;;;12.20;;
17991;SDS011;9121;50.926;5.340;2022-08-05T05:22:38;25.05;;;12.50;;
17991;SDS011;9121;50.926;5.340;2022-08-05T05:25:06;20.52;;;12.73;;
17991;SDS011;9121;50.926;5.340;2022-08-05T05:27:34;23.13;;;12.80;;
17991;SDS011;9121;50.926;5.340;2022-08-05T05:30:02;20.02;;;12.95;;
17991;SDS011;9121;50.926;5.340;2022-08-05T05:32:30;19.23;;;13.23;;
17991;SDS011;9121;50.926;5.340;2022-08-05T05:34:57;17.38;;;12.13;;
17991;SDS011;9121;50.926;5.340;2022-08-05T05:37:23;19.60;;;12.52;;
17991;SDS011;9121;50.926;5.340;2022-08-05T05:39:52;21.52;;;12.18;;
17991;SDS011;9121;50.926;5.340;2022-08-05T05:42:19;20.08;;;12.27;;
17991;SDS011;9121;50.926;5.340;2022-08-05T05:44:45;20.00;;;11.07;;
17991;SDS011;9121;50.926;5.340;2022-08-05T05:47:12;20.42;;;11.73;;
17991;SDS011;9121;50.926;5.340;2022-08-05T05:49:39;21.95;;;13.70;;
17991;SDS011;9121;50.926;5.340;2022-08-05T05:52:06;22.75;;;13.98;;
17991;SDS011;9121;50.926;5.340;2022-08-05T05:54:33;19.27;;;12.50;;
17991;SDS011;9121;50.926;5.340;2022-08-05T05:57:02;19.35;;;12.13;;
17991;SDS011;9121;50.926;5.340;2022-08-05T05:59:29;16.83;;;10.75;;
17991;SDS011;9121;50.926;5.340;2022-08-05T06:01:56;18.27;;;10.88;;
17991;SDS011;9121;50.926;5.340;2022-08-05T06:04:23;17.83;;;11.38;;
17991;SDS011;9121;50.926;5.340;2022-08-05T06:06:50;17.15;;;10.32;;
17991;SDS011;9121;50.926;5.340;2022-08-05T06:09:16;14.55;;;9.23;;
17991;SDS011;9121;50.926;5.340;2022-08-05T06:11:43;20.42;;;9.95;;
17991;SDS011;9121;50.926;5.340;2022-08-05T06:14:12;18.55;;;9.63;;
17991;SDS011;9121;50.926;5.340;2022-08-05T06:16:39;16.23;;;9.98;;
17991;SDS011;9121;50.926;5.340;2022-08-05T06:19:06;15.13;;;8.30;;
17991;SDS011;9121;50.926;5.340;2022-08-05T06:21:33;12.40;;;8.25;;
17991;SDS011;9121;50.926;5.340;2022-08-05T06:24:03;10.63;;;7.35;;
17991;SDS011;9121;50.926;5.340;2022-08-05T06:26:30;14.38;;;8.65;;
17991;SDS011;9121;50.926;5.340;2022-08-05T06:28:58;15.43;;;9.13;;
17991;SDS011;9121;50.926;5.340;2022-08-05T06:31:26;14.60;;;9.30;;
17991;SDS011;9121;50.926;5.340;2022-08-05T06:33:53;13.60;;;9.18;;
17991;SDS011;9121;50.926;5.340;2022-08-05T06:36:20;15.45;;;9.65;;
17991;SDS011;9121;50.926;5.340;2022-08-05T06:38:47;19.77;;;9.13;;
17991;SDS011;9121;50.926;5.340;2022-08-05T06:41:17;19.88;;;10.13;;
17991;SDS011;9121;50.926;5.340;2022-08-05T06:43:44;11.80;;;8.43;;
17991;SDS011;9121;50.926;5.340;2022-08-05T06:46:11;16.80;;;9.30;;
17991;SDS011;9121;50.926;5.340;2022-08-05T06:48:40;14.82;;;9.15;;
17991;SDS011;9121;50.926;5.340;2022-08-05T06:51:07;19.63;;;8.95;;
17991;SDS011;9121;50.926;5.340;2022-08-05T06:53:34;14.65;;;9.43;;
17991;SDS011;9121;50.926;5.340;2022-08-05T06:56:00;15.60;;;9.25;;
17991;SDS011;9121;50.926;5.340;2022-08-05T06:58:28;17.83;;;9.20;;
17991;SDS011;9121;50.926;5.340;2022-08-05T07:00:56;15.88;;;8.52;;
17991;SDS011;9121;50.926;5.340;2022-08-05T07:03:23;15.20;;;7.90;;
17991;SDS011;9121;50.926;5.340;2022-08-05T07:05:52;13.27;;;7.10;;
17991;SDS011;9121;50.926;5.340;2022-08-05T07:08:19;10.60;;;7.80;;
17991;SDS011;9121;50.926;5.340;2022-08-05T07:10:47;16.45;;;7.60;;
17991;SDS011;9121;50.926;5.340;2022-08-05T07:13:14;16.30;;;7.35;;
17991;SDS011;9121;50.926;5.340;2022-08-05T07:15:58;15.02;;;7.97;;
17991;SDS011;9121;50.926;5.340;2022-08-05T07:18:42;15.98;;;8.00;;
17991;SDS011;9121;50.926;5.340;2022-08-05T07:21:10;11.48;;;7.60;;
17991;SDS011;9121;50.926;5.340;2022-08-05T07:23:37;17.77;;;7.35;;
17991;SDS011;9121;50.926;5.340;2022-08-05T07:26:04;11.07;;;7.20;;
17991;SDS011;9121;50.926;5.340;2022-08-05T07:28:31;14.65;;;7.68;;
17991;SDS011;9121;50.926;5.340;2022-08-05T07:30:58;13.98;;;7.25;;
17991;SDS011;9121;50.926;5.340;2022-08-05T07:33:25;15.70;;;7.43;;
17991;SDS011;9121;50.926;5.340;2022-08-05T07:35:52;13.90;;;7.10;;
17991;SDS011;9121;50.926;5.340;2022-08-05T07:38:20;13.30;;;7.43;;
17991;SDS011;9121;50.926;5.340;2022-08-05T07:40:47;14.27;;;7.63;;
17991;SDS011;9121;50.926;5.340;2022-08-05T07:43:14;14.15;;;7.55;;
17991;SDS011;9121;50.926;5.340;2022-08-05T07:45:41;14.45;;;7.70;;
17991;SDS011;9121;50.926;5.340;2022-08-05T07:48:08;18.20;;;7.22;;
17991;SDS011;9121;50.926;5.340;2022-08-05T07:50:36;11.90;;;6.35;;
17991;SDS011;9121;50.926;5.340;2022-08-05T07:53:03;11.40;;;6.18;;
17991;SDS011;9121;50.926;5.340;2022-08-05T07:55:31;15.20;;;6.38;;
17991;SDS011;9121;50.926;5.340;2022-08-05T07:57:58;11.73;;;5.75;;
17991;SDS011;9121;50.926;5.340;2022-08-05T08:00:26;13.90;;;6.35;;
17991;SDS011;9121;50.926;5.340;2022-08-05T08:02:53;12.68;;;6.00;;
17991;SDS011;9121;50.926;5.340;2022-08-05T08:05:19;13.38;;;5.72;;
17991;SDS011;9121;50.926;5.340;2022-08-05T08:07:46;9.90;;;5.60;;
17991;SDS011;9121;50.926;5.340;2022-08-05T08:10:13;12.25;;;6.03;;
17991;SDS011;9121;50.926;5.340;2022-08-05T08:12:41;11.85;;;5.75;;
17991;SDS011;9121;50.926;5.340;2022-08-05T08:15:09;13.27;;;6.05;;
17991;SDS011;9121;50.926;5.340;2022-08-05T08:17:36;14.25;;;5.95;;
17991;SDS011;9121;50.926;5.340;2022-08-05T08:20:03;13.15;;;5.60;;
17991;SDS011;9121;50.926;5.340;2022-08-05T08:22:31;11.32;;;5.97;;
17991;SDS011;9121;50.926;5.340;2022-08-05T08:24:59;19.95;;;6.78;;
17991;SDS011;9121;50.926;5.340;2022-08-05T08:27:26;12.15;;;6.50;;
17991;SDS011;9121;50.926;5.340;2022-08-05T08:29:54;11.93;;;5.72;;
17991;SDS011;9121;50.926;5.340;2022-08-05T08:32:21;19.20;;;7.03;;
17991;SDS011;9121;50.926;5.340;2022-08-05T08:34:48;13.73;;;7.20;;
17991;SDS011;9121;50.926;5.340;2022-08-05T08:37:16;12.63;;;6.75;;
17991;SDS011;9121;50.926;5.340;2022-08-05T08:39:44;13.52;;;7.45;;
17991;SDS011;9121;50.926;5.340;2022-08-05T08:42:11;13.77;;;7.32;;
17991;SDS011;9121;50.926;5.340;2022-08-05T08:44:39;18.05;;;6.90;;
17991;SDS011;9121;50.926;5.340;2022-08-05T08:47:09;14.48;;;6.90;;
17991;SDS011;9121;50.926;5.340;2022-08-05T08:49:36;18.08;;;7.50;;
17991;SDS011;9121;50.926;5.340;2022-08-05T08:52:07;17.23;;;7.05;;
17991;SDS011;9121;50.926;5.340;2022-08-05T08:54:38;17.88;;;7.18;;
17991;SDS011;9121;50.926;5.340;2022-08-05T08:57:05;14.20;;;6.25;;
17991;SDS011;9121;50.926;5.340;2022-08-05T08:59:33;14.82;;;7.00;;
17991;SDS011;9121;50.926;5.340;2022-08-05T09:02:00;17.25;;;6.90;;
17991;SDS011;9121;50.926;5.340;2022-08-05T09:04:32;13.98;;;7.30;;
17991;SDS011;9121;50.926;5.340;2022-08-05T09:07:02;15.45;;;7.47;;
17991;SDS011;9121;50.926;5.340;2022-08-05T09:09:30;18.08;;;6.72;;
17991;SDS011;9121;50.926;5.340;2022-08-05T09:11:57;12.23;;;6.18;;
17991;SDS011;9121;50.926;5.340;2022-08-05T09:14:25;16.90;;;6.65;;
17991;SDS011;9121;50.926;5.340;2022-08-05T09:16:52;12.43;;;7.00;;
17991;SDS011;9121;50.926;5.340;2022-08-05T09:19:19;12.35;;;6.68;;
17991;SDS011;9121;50.926;5.340;2022-08-05T09:21:47;14.48;;;7.28;;
17991;SDS011;9121;50.926;5.340;2022-08-05T09:24:14;9.73;;;7.32;;
17991;SDS011;9121;50.926;5.340;2022-08-05T09:26:45;16.23;;;7.75;;
17991;SDS011;9121;50.926;5.340;2022-08-05T09:29:14;11.43;;;6.97;;
17991;SDS011;9121;50.926;5.340;2022-08-05T09:31:41;12.68;;;6.88;;
17991;SDS011;9121;50.926;5.340;2022-08-05T09:34:09;10.52;;;6.70;;
17991;SDS011;9121;50.926;5.340;2022-08-05T09:36:41;11.10;;;6.50;;
17991;SDS011;9121;50.926;5.340;2022-08-05T09:39:12;18.48;;;7.50;;
17991;SDS011;9121;50.926;5.340;2022-08-05T09:41:56;17.38;;;7.72;;
17991;SDS011;9121;50.926;5.340;2022-08-05T09:44:36;12.95;;;6.88;;
17991;SDS011;9121;50.926;5.340;2022-08-05T09:47:05;13.05;;;6.63;;
17991;SDS011;9121;50.926;5.340;2022-08-05T09:49:33;10.50;;;6.18;;
17991;SDS011;9121;50.926;5.340;2022-08-05T09:52:15;9.27;;;5.32;;
17991;SDS011;9121;50.926;5.340;2022-08-05T09:54:58;10.48;;;4.95;;
17991;SDS011;9121;50.926;5.340;2022-08-05T09:57:29;12.63;;;4.93;;
17991;SDS011;9121;50.926;5.340;2022-08-05T09:59:58;11.57;;;5.05;;
17991;SDS011;9121;50.926;5.340;2022-08-05T10:02:31;12.45;;;4.25;;
17991;SDS011;9121;50.926;5.340;2022-08-05T10:05:04;8.68;;;4.82;;
17991;SDS011;9121;50.926;5.340;2022-08-05T10:07:46;9.10;;;4.90;;
17991;SDS011;9121;50.926;5.340;2022-08-05T10:10:17;8.43;;;4.00;;
17991;SDS011;9121;50.926;5.340;2022-08-05T10:12:46;9.98;;;4.60;;
17991;SDS011;9121;50.926;5.340;2022-08-05T10:15:15;11.63;;;4.13;;
17991;SDS011;9121;50.926;5.340;2022-08-05T10:18:07;11.55;;;4.05;;
17991;SDS011;9121;50.926;5.340;2022-08-05T10:20:37;9.25;;;3.83;;
17991;SDS011;9121;50.926;5.340;2022-08-05T10:23:07;15.82;;;4.35;;
17991;SDS011;9121;50.926;5.340;2022-08-05T10:25:37;7.72;;;5.15;;
17991;SDS011;9121;50.926;5.340;2022-08-05T10:28:04;8.52;;;5.10;;
17991;SDS011;9121;50.926;5.340;2022-08-05T10:30:31;14.25;;;5.20;;
17991;SDS011;9121;50.926;5.340;2022-08-05T10:32:59;8.32;;;4.78;;
17991;SDS011;9121;50.926;5.340;2022-08-05T10:35:28;10.20;;;5.53;;
17991;SDS011;9121;50.926;5.340;2022-08-05T10:37:55;8.13;;;4.85;;
17991;SDS011;9121;50.926;5.340;2022-08-05T10:40:27;11.57;;;3.25;;
17991;SDS011;9121;50.926;5.340;2022-08-05T10:43:01;7.53;;;3.03;;
17991;SDS011;9121;50.926;5.340;2022-08-05T10:45:34;7.38;;;2.78;;
17991;SDS011;9121;50.926;5.340;2022-08-05T10:51:04;4.88;;;2.65;;
17991;SDS011;9121;50.926;5.340;2022-08-05T10:53:34;6.00;;;2.70;;
17991;SDS011;9121;50.926;5.340;2022-08-05T10:56:10;6.53;;;3.17;;
17991;SDS011;9121;50.926;5.340;2022-08-05T11:01:33;8.70;;;2.50;;
17991;SDS011;9121;50.926;5.340;2022-08-05T11:04:03;9.23;;;2.63;;
17991;SDS011;9121;50.926;5.340;2022-08-05T11:06:31;7.65;;;2.38;;
17991;SDS011;9121;50.926;5.340;2022-08-05T11:09:09;6.70;;;2.63;;
17991;SDS011;9121;50.926;5.340;2022-08-05T11:11:37;8.45;;;2.55;;
17991;SDS011;9121;50.926;5.340;2022-08-05T11:14:07;5.00;;;2.40;;
17991;SDS011;9121;50.926;5.340;2022-08-05T11:16:37;4.25;;;2.45;;
17991;SDS011;9121;50.926;5.340;2022-08-05T11:21:50;7.60;;;2.00;;
17991;SDS011;9121;50.926;5.340;2022-08-05T11:24:17;5.15;;;2.70;;
17991;SDS011;9121;50.926;5.340;2022-08-05T11:26:45;7.13;;;2.00;;
17991;SDS011;9121;50.926;5.340;2022-08-05T11:34:50;6.18;;;2.40;;
17991;SDS011;9121;50.926;5.340;2022-08-05T11:43:30;10.48;;;2.25;;
17991;SDS011;9121;50.926;5.340;2022-08-05T11:45:59;3.40;;;1.88;;
17991;SDS011;9121;50.926;5.340;2022-08-05T11:48:27;7.13;;;2.47;;
17991;SDS011;9121;50.926;5.340;2022-08-05T11:50:55;10.75;;;2.53;;
17991;SDS011;9121;50.926;5.340;2022-08-05T11:53:22;8.82;;;2.42;;
17991;SDS011;9121;50.926;5.340;2022-08-05T11:55:54;4.03;;;2.20;;
17991;SDS011;9121;50.926;5.340;2022-08-05T11:58:27;6.55;;;1.85;;
17991;SDS011;9121;50.926;5.340;2022-08-05T12:01:03;7.28;;;2.42;;
17991;SDS011;9121;50.926;5.340;2022-08-05T12:03:39;7.55;;;1.70;;
17991;SDS011;9121;50.926;5.340;2022-08-05T12:06:07;1.90;;;1.30;;
17991;SDS011;9121;50.926;5.340;2022-08-05T12:08:39;5.40;;;1.50;;
17991;SDS011;9121;50.926;5.340;2022-08-05T12:11:10;3.80;;;1.88;;
17991;SDS011;9121;50.926;5.340;2022-08-05T12:13:49;5.28;;;1.67;;
17991;SDS011;9121;50.926;5.340;2022-08-05T12:16:20;3.50;;;1.48;;
17991;SDS011;9121;50.926;5.340;2022-08-05T12:18:48;3.45;;;1.80;;
17991;SDS011;9121;50.926;5.340;2022-08-05T12:21:15;4.03;;;1.60;;
17991;SDS011;9121;50.926;5.340;2022-08-05T12:23:50;5.80;;;1.80;;
17991;SDS011;9121;50.926;5.340;2022-08-05T12:26:19;4.55;;;1.67;;
17991;SDS011;9121;50.926;5.340;2022-08-05T12:28:46;3.58;;;1.50;;
17991;SDS011;9121;50.926;5.340;2022-08-05T12:31:13;7.70;;;1.52;;
17991;SDS011;9121;50.926;5.340;2022-08-05T12:33:43;3.80;;;1.75;;
17991;SDS011;9121;50.926;5.340;2022-08-05T12:36:11;5.32;;;1.60;;
17991;SDS011;9121;50.926;5.340;2022-08-05T12:38:39;3.80;;;1.40;;
17991;SDS011;9121;50.926;5.340;2022-08-05T12:41:07;3.13;;;1.30;;
17991;SDS011;9121;50.926;5.340;2022-08-05T12:43:46;2.88;;;1.20;;
17991;SDS011;9121;50.926;5.340;2022-08-05T12:46:21;3.00;;;1.02;;
17991;SDS011;9121;50.926;5.340;2022-08-05T12:49:01;4.07;;;1.52;;
17991;SDS011;9121;50.926;5.340;2022-08-05T12:51:30;4.65;;;1.38;;
17991;SDS011;9121;50.926;5.340;2022-08-05T12:54:08;2.63;;;1.20;;
17991;SDS011;9121;50.926;5.340;2022-08-05T12:56:39;4.25;;;1.40;;
17991;SDS011;9121;50.926;5.340;2022-08-05T12:59:10;2.83;;;1.27;;
17991;SDS011;9121;50.926;5.340;2022-08-05T13:01:38;1.00;;;0.80;;
17991;SDS011;9121;50.926;5.340;2022-08-05T13:04:07;7.32;;;2.00;;
17991;SDS011;9121;50.926;5.340;2022-08-05T13:06:39;10.95;;;1.80;;
17991;SDS011;9121;50.926;5.340;2022-08-05T13:09:07;7.43;;;1.58;;
17991;SDS011;9121;50.926;5.340;2022-08-05T13:11:37;4.15;;;1.48;;
17991;SDS011;9121;50.926;5.340;2022-08-05T13:14:09;7.30;;;1.50;;
17991;SDS011;9121;50.926;5.340;2022-08-05T13:16:51;4.18;;;1.50;;
17991;SDS011;9121;50.926;5.340;2022-08-05T13:19:22;5.13;;;1.52;;
17991;SDS011;9121;50.926;5.340;2022-08-05T13:21:50;2.88;;;1.08;;
17991;SDS011;9121;50.926;5.340;2022-08-05T13:24:17;5.50;;;1.30;;
17991;SDS011;9121;50.926;5.340;2022-08-05T13:26:46;2.70;;;1.40;;
17991;SDS011;9121;50.926;5.340;2022-08-05T13:29:14;4.93;;;1.40;;
17991;SDS011;9121;50.926;5.340;2022-08-05T13:31:41;3.70;;;1.40;;
17991;SDS011;9121;50.926;5.340;2022-08-05T13:34:08;2.25;;;1.10;;
17991;SDS011;9121;50.926;5.340;2022-08-05T13:36:37;3.30;;;1.30;;
17991;SDS011;9121;50.926;5.340;2022-08-05T13:39:05;5.30;;;1.50;;
17991;SDS011;9121;50.926;5.340;2022-08-05T13:41:32;5.60;;;1.20;;
17991;SDS011;9121;50.926;5.340;2022-08-05T13:43:59;2.83;;;1.10;;
17991;SDS011;9121;50.926;5.340;2022-08-05T13:46:26;9.15;;;1.30;;
17991;SDS011;9121;50.926;5.340;2022-08-05T13:48:53;13.40;;;1.60;;
17991;SDS011;9121;50.926;5.340;2022-08-05T13:51:30;5.82;;;1.30;;
17991;SDS011;9121;50.926;5.340;2022-08-05T13:53:59;9.55;;;1.40;;
17991;SDS011;9121;50.926;5.340;2022-08-05T13:56:26;3.50;;;1.25;;
17991;SDS011;9121;50.926;5.340;2022-08-05T13:58:53;3.15;;;1.30;;
17991;SDS011;9121;50.926;5.340;2022-08-05T14:01:20;2.95;;;1.40;;
17991;SDS011;9121;50.926;5.340;2022-08-05T14:03:47;4.60;;;1.08;;
17991;SDS011;9121;50.926;5.340;2022-08-05T14:06:28;5.93;;;1.70;;
17991;SDS011;9121;50.926;5.340;2022-08-05T14:08:56;5.68;;;1.70;;
17991;SDS011;9121;50.926;5.340;2022-08-05T14:11:25;3.83;;;1.73;;
17991;SDS011;9121;50.926;5.340;2022-08-05T14:13:53;4.20;;;1.60;;
17991;SDS011;9121;50.926;5.340;2022-08-05T14:16:20;2.63;;;1.13;;
17991;SDS011;9121;50.926;5.340;2022-08-05T14:18:47;5.03;;;1.58;;
17991;SDS011;9121;50.926;5.340;2022-08-05T14:21:14;7.88;;;1.50;;
17991;SDS011;9121;50.926;5.340;2022-08-05T14:23:41;4.55;;;1.63;;
17991;SDS011;9121;50.926;5.340;2022-08-05T14:26:08;5.60;;;1.13;;
17991;SDS011;9121;50.926;5.340;2022-08-05T14:28:37;4.38;;;1.08;;
17991;SDS011;9121;50.926;5.340;2022-08-05T14:31:04;4.05;;;1.10;;
17991;SDS011;9121;50.926;5.340;2022-08-05T14:33:31;5.65;;;1.10;;
17991;SDS011;9121;50.926;5.340;2022-08-05T14:35:58;1.52;;;1.02;;
17991;SDS011;9121;50.926;5.340;2022-08-05T14:38:26;4.72;;;1.13;;
17991;SDS011;9121;50.926;5.340;2022-08-05T14:40:53;3.47;;;1.23;;
17991;SDS011;9121;50.926;5.340;2022-08-05T14:43:20;4.18;;;1.13;;
17991;SDS011;9121;50.926;5.340;2022-08-05T14:45:49;1.85;;;0.93;;
17991;SDS011;9121;50.926;5.340;2022-08-05T14:48:16;4.28;;;1.10;;
17991;SDS011;9121;50.926;5.340;2022-08-05T14:50:43;3.88;;;0.93;;
17991;SDS011;9121;50.926;5.340;2022-08-05T14:53:10;2.63;;;1.00;;
17991;SDS011;9121;50.926;5.340;2022-08-05T14:55:37;4.95;;;1.23;;
17991;SDS011;9121;50.926;5.340;2022-08-05T14:58:04;4.43;;;1.10;;
17991;SDS011;9121;50.926;5.340;2022-08-05T15:00:31;3.08;;;1.40;;
17991;SDS011;9121;50.926;5.340;2022-08-05T15:02:59;4.18;;;1.10;;
17991;SDS011;9121;50.926;5.340;2022-08-05T15:05:26;2.83;;;1.02;;
17991;SDS011;9121;50.926;5.340;2022-08-05T15:07:53;1.90;;;1.20;;
17991;SDS011;9121;50.926;5.340;2022-08-05T15:10:20;4.85;;;1.10;;
17991;SDS011;9121;50.926;5.340;2022-08-05T15:12:47;2.22;;;1.08;;
17991;SDS011;9121;50.926;5.340;2022-08-05T15:15:14;3.60;;;0.93;;
17991;SDS011;9121;50.926;5.340;2022-08-05T15:17:41;2.55;;;0.88;;
17991;SDS011;9121;50.926;5.340;2022-08-05T15:20:10;2.42;;;1.08;;
17991;SDS011;9121;50.926;5.340;2022-08-05T15:22:37;1.58;;;0.82;;